Time,TemperatureF,DewpointF,PressureIn,WindDirection,WindDirectionDegrees,WindSpeedMPH,WindSpeedGustMPH,Humidity,HourlyPrecipIn,Conditions,Clouds,dailyrainin,SoftwareType,DateUTC
2014-04-21 00:02:00,43.8,33.9,30.10,East,90,0.0,2.0,68,0.00,,,0.00,Weather View 32 v70,2014-04-21 07:02:00,
2014-04-21 00:07:00,43.7,34.5,30.10,East,90,0.0,2.0,70,0.00,,,0.00,Weather View 32 v70,2014-04-21 07:07:00,
2014-04-21 00:12:00,43.7,34.2,30.10,East,90,0.0,0.0,69,0.00,,,0.00,Weather View 32 v70,2014-04-21 07:12:00,
2014-04-21 00:17:00,43.6,34.4,30.10,East,90,0.0,0.0,70,0.00,,,0.00,Weather View 32 v70,2014-04-21 07:17:00,
2014-04-21 00:22:00,43.4,34.6,30.09,East,90,0.0,0.0,71,0.00,,,0.00,Weather View 32 v70,2014-04-21 07:22:00,
2014-04-21 00:27:00,43.1,34.0,30.09,East,90,0.0,0.0,70,0.00,,,0.00,Weather View 32 v70,2014-04-21 07:27:00,
2014-04-21 00:32:00,42.8,34.4,30.10,East,90,0.0,0.0,72,0.00,,,0.00,Weather View 32 v70,2014-04-21 07:32:00,
2014-04-21 00:37:00,42.6,34.5,30.10,East,90,0.0,0.0,73,0.00,,,0.00,Weather View 32 v70,2014-04-21 07:37:00,
2014-04-21 00:43:00,42.4,34.0,30.10,East,90,0.0,0.0,72,0.00,,,0.00,Weather View 32 v70,2014-04-21 07:43:00,
2014-04-21 00:48:00,42.1,34.1,30.09,East,90,0.0,0.0,73,0.00,,,0.00,Weather View 32 v70,2014-04-21 07:48:00,
2014-04-21 00:53:00,41.7,33.3,30.09,East,90,0.0,0.0,72,0.00,,,0.00,Weather View 32 v70,2014-04-21 07:53:00,
2014-04-21 00:58:00,41.3,34.3,30.09,East,90,0.0,0.0,76,0.00,,,0.00,Weather View 32 v70,2014-04-21 07:58:00,
2014-04-21 01:03:00,41.1,33.4,30.09,East,90,0.0,0.0,74,0.00,,,0.00,Weather View 32 v70,2014-04-21 08:03:00,
2014-04-21 01:08:00,40.9,34.6,30.09,East,90,0.0,0.0,78,0.00,,,0.00,Weather View 32 v70,2014-04-21 08:08:00,
2014-04-21 01:13:00,40.8,34.1,30.09,East,90,0.0,0.0,77,0.00,,,0.00,Weather View 32 v70,2014-04-21 08:13:00,
2014-04-21 01:18:00,40.7,34.4,30.08,East,90,0.0,0.0,78,0.00,,,0.00,Weather View 32 v70,2014-04-21 08:18:00,
2014-04-21 01:23:00,40.4,33.8,30.08,East,90,0.0,0.0,77,0.00,,,0.00,Weather View 32 v70,2014-04-21 08:23:00,
2014-04-21 01:28:00,40.1,34.1,30.08,East,90,0.0,0.0,79,0.00,,,0.00,Weather View 32 v70,2014-04-21 08:28:00,
2014-04-21 01:33:00,39.9,33.6,30.08,East,90,0.0,0.0,78,0.00,,,0.00,Weather View 32 v70,2014-04-21 08:33:00,
2014-04-21 01:38:00,39.7,33.7,30.08,East,90,0.0,0.0,79,0.00,,,0.00,Weather View 32 v70,2014-04-21 08:38:00,
2014-04-21 01:43:00,39.6,33.6,30.08,East,90,0.0,0.0,79,0.00,,,0.00,Weather View 32 v70,2014-04-21 08:43:00,
2014-04-21 01:48:00,39.4,33.4,30.08,East,90,0.0,0.0,79,0.00,,,0.00,Weather View 32 v70,2014-04-21 08:48:00,
2014-04-21 01:53:00,39.1,32.8,30.08,East,90,0.0,0.0,78,0.00,,,0.00,Weather View 32 v70,2014-04-21 08:53:00,
2014-04-21 01:58:00,38.8,33.2,30.08,East,90,0.0,0.0,80,0.00,,,0.00,Weather View 32 v70,2014-04-21 08:58:00,
2014-04-21 02:03:00,38.7,33.4,30.08,East,90,0.0,0.0,81,0.00,,,0.00,Weather View 32 v70,2014-04-21 09:03:00,
2014-04-21 02:08:00,38.6,33.3,30.07,East,90,0.0,0.0,81,0.00,,,0.00,Weather View 32 v70,2014-04-21 09:08:00,
2014-04-21 02:13:00,38.5,33.2,30.07,East,90,0.0,0.0,81,0.00,,,0.00,Weather View 32 v70,2014-04-21 09:13:00,
2014-04-21 02:18:00,38.3,33.3,30.07,East,90,0.0,0.0,82,0.00,,,0.00,Weather View 32 v70,2014-04-21 09:18:00,
2014-04-21 02:23:00,38.1,33.1,30.07,East,90,0.0,0.0,82,0.00,,,0.00,Weather View 32 v70,2014-04-21 09:23:00,
2014-04-21 02:28:00,37.9,33.2,30.07,East,90,0.0,0.0,83,0.00,,,0.00,Weather View 32 v70,2014-04-21 09:28:00,
2014-04-21 02:33:00,37.8,33.4,30.07,East,90,0.0,0.0,84,0.00,,,0.00,Weather View 32 v70,2014-04-21 09:33:00,
2014-04-21 02:38:00,37.5,32.5,30.07,East,90,0.0,0.0,82,0.00,,,0.00,Weather View 32 v70,2014-04-21 09:38:00,
2014-04-21 02:43:00,37.3,32.6,30.07,East,90,0.0,0.0,83,0.00,,,0.00,Weather View 32 v70,2014-04-21 09:43:00,
2014-04-21 02:48:00,37.2,32.8,30.06,East,90,0.0,0.0,84,0.00,,,0.00,Weather View 32 v70,2014-04-21 09:48:00,
2014-04-21 02:53:00,37.2,33.1,30.06,East,90,0.0,0.0,85,0.00,,,0.00,Weather View 32 v70,2014-04-21 09:53:00,
2014-04-21 02:58:00,37.5,33.1,30.06,East,90,0.0,0.0,84,0.00,,,0.00,Weather View 32 v70,2014-04-21 09:58:00,
2014-04-21 03:03:00,37.7,32.7,30.06,East,90,0.0,0.0,82,0.00,,,0.00,Weather View 32 v70,2014-04-21 10:03:00,
2014-04-21 03:08:00,37.6,32.6,30.06,East,90,0.0,0.0,82,0.00,,,0.00,Weather View 32 v70,2014-04-21 10:08:00,
2014-04-21 03:13:00,37.6,32.6,30.06,East,90,0.0,0.0,82,0.00,,,0.00,Weather View 32 v70,2014-04-21 10:13:00,
2014-04-21 03:18:00,37.8,32.8,30.06,East,90,0.0,1.0,82,0.00,,,0.00,Weather View 32 v70,2014-04-21 10:18:00,
2014-04-21 03:23:00,37.9,32.9,30.06,East,90,0.0,1.0,82,0.00,,,0.00,Weather View 32 v70,2014-04-21 10:23:00,
2014-04-21 03:28:00,37.9,32.6,30.05,East,90,0.0,1.0,81,0.00,,,0.00,Weather View 32 v70,2014-04-21 10:28:00,
2014-04-21 03:33:00,37.9,32.6,30.05,East,90,0.0,1.0,81,0.00,,,0.00,Weather View 32 v70,2014-04-21 10:33:00,
2014-04-21 03:38:00,37.8,33.1,30.05,East,90,0.0,1.0,83,0.00,,,0.00,Weather View 32 v70,2014-04-21 10:38:00,
2014-04-21 03:43:00,37.9,33.2,30.05,East,90,0.0,1.0,83,0.00,,,0.00,Weather View 32 v70,2014-04-21 10:43:00,
2014-04-21 03:48:00,37.9,32.9,30.05,East,90,0.0,1.0,82,0.00,,,0.00,Weather View 32 v70,2014-04-21 10:48:00,
2014-04-21 03:53:00,38.1,33.1,30.05,East,90,0.0,1.0,82,0.00,,,0.00,Weather View 32 v70,2014-04-21 10:53:00,
2014-04-21 03:58:00,38.3,33.0,30.04,East,90,0.0,1.0,81,0.00,,,0.00,Weather View 32 v70,2014-04-21 10:58:00,
2014-04-21 04:03:00,38.2,32.9,30.04,East,90,0.0,1.0,81,0.00,,,0.00,Weather View 32 v70,2014-04-21 11:03:00,
2014-04-21 04:08:00,38.3,33.0,30.04,East,90,0.0,1.0,81,0.00,,,0.00,Weather View 32 v70,2014-04-21 11:08:00,
2014-04-21 04:13:00,38.2,33.2,30.04,East,90,0.0,1.0,82,0.00,,,0.00,Weather View 32 v70,2014-04-21 11:13:00,
2014-04-21 04:18:00,38.2,33.5,30.04,East,90,0.0,0.0,83,0.00,,,0.00,Weather View 32 v70,2014-04-21 11:18:00,
2014-04-21 04:23:00,38.3,33.3,30.04,East,90,0.0,0.0,82,0.00,,,0.00,Weather View 32 v70,2014-04-21 11:23:00,
2014-04-21 04:28:00,38.3,33.3,30.04,East,90,0.0,0.0,82,0.00,,,0.00,Weather View 32 v70,2014-04-21 11:28:00,
2014-04-21 04:33:00,38.4,33.7,30.04,East,90,0.0,0.0,83,0.00,,,0.00,Weather View 32 v70,2014-04-21 11:33:00,
2014-04-21 04:38:00,38.5,33.5,30.04,East,90,0.0,0.0,82,0.00,,,0.00,Weather View 32 v70,2014-04-21 11:38:00,
2014-04-21 04:43:00,38.8,33.8,30.04,East,90,0.0,0.0,82,0.00,,,0.00,Weather View 32 v70,2014-04-21 11:43:00,
2014-04-21 04:48:00,38.9,33.6,30.04,East,90,0.0,0.0,81,0.00,,,0.00,Weather View 32 v70,2014-04-21 11:48:00,
2014-04-21 04:53:00,39.1,34.1,30.04,East,90,0.0,0.0,82,0.00,,,0.00,Weather View 32 v70,2014-04-21 11:53:00,
2014-04-21 04:58:00,39.4,34.0,30.04,East,90,0.0,0.0,81,0.00,,,0.00,Weather View 32 v70,2014-04-21 11:58:00,
2014-04-21 05:03:00,39.5,34.5,30.04,East,90,0.0,0.0,82,0.00,,,0.00,Weather View 32 v70,2014-04-21 12:03:00,
2014-04-21 05:08:00,39.6,34.2,30.04,East,90,0.0,0.0,81,0.00,,,0.00,Weather View 32 v70,2014-04-21 12:08:00,
2014-04-21 05:13:00,39.6,34.6,30.03,East,90,0.0,0.0,82,0.00,,,0.00,Weather View 32 v70,2014-04-21 12:13:00,
2014-04-21 05:18:00,39.7,34.7,30.03,East,90,0.0,0.0,82,0.00,,,0.00,Weather View 32 v70,2014-04-21 12:18:00,
2014-04-21 05:23:00,39.9,35.2,30.04,East,90,0.0,0.0,83,0.00,,,0.00,Weather View 32 v70,2014-04-21 12:23:00,
2014-04-21 05:29:00,40.3,35.2,30.03,East,90,0.0,1.0,82,0.00,,,0.00,Weather View 32 v70,2014-04-21 12:29:00,
2014-04-21 05:34:00,40.5,34.8,30.01,East,90,0.0,2.0,80,0.00,,,0.00,Weather View 32 v70,2014-04-21 12:34:00,
2014-04-21 05:39:00,40.5,34.8,30.02,East,90,0.0,2.0,80,0.00,,,0.00,Weather View 32 v70,2014-04-21 12:39:00,
2014-04-21 05:44:00,40.7,34.7,30.04,SW,225,2.0,2.0,79,0.00,,,0.00,Weather View 32 v70,2014-04-21 12:44:00,
2014-04-21 05:49:00,40.8,35.1,30.03,SW,225,0.0,2.0,80,0.00,,,0.00,Weather View 32 v70,2014-04-21 12:49:00,
2014-04-21 05:54:00,40.8,35.4,30.03,SW,225,0.0,2.0,81,0.00,,,0.00,Weather View 32 v70,2014-04-21 12:54:00,
2014-04-21 05:59:00,40.8,35.7,30.03,SW,225,0.0,2.0,82,0.00,,,0.00,Weather View 32 v70,2014-04-21 12:59:00,
2014-04-21 06:04:00,40.9,35.5,30.02,ENE,67,2.0,2.0,81,0.00,,,0.00,Weather View 32 v70,2014-04-21 13:04:00,
2014-04-21 06:09:00,41.2,35.5,30.03,ENE,67,0.0,2.0,80,0.00,,,0.00,Weather View 32 v70,2014-04-21 13:09:00,
2014-04-21 06:14:00,41.2,35.5,30.02,East,90,0.0,2.0,80,0.00,,,0.00,Weather View 32 v70,2014-04-21 13:14:00,
2014-04-21 06:19:00,41.3,35.6,30.02,NNW,337,0.0,2.0,80,0.00,,,0.00,Weather View 32 v70,2014-04-21 13:19:00,
2014-04-21 06:24:00,41.4,35.4,30.02,NNW,337,0.0,2.0,79,0.00,,,0.00,Weather View 32 v70,2014-04-21 13:24:00,
2014-04-21 06:29:00,41.4,35.4,30.02,NNW,337,0.0,2.0,79,0.00,,,0.00,Weather View 32 v70,2014-04-21 13:29:00,
2014-04-21 06:34:00,41.3,35.0,30.02,NNW,337,0.0,2.0,78,0.00,,,0.00,Weather View 32 v70,2014-04-21 13:34:00,
2014-04-21 06:39:00,41.2,34.9,30.02,NNW,337,0.0,2.0,78,0.00,,,0.00,Weather View 32 v70,2014-04-21 13:39:00,
2014-04-21 06:44:00,41.2,35.2,30.02,NNW,337,0.0,2.0,79,0.00,,,0.00,Weather View 32 v70,2014-04-21 13:44:00,
2014-04-21 06:49:00,41.2,35.2,30.02,NNW,337,0.0,2.0,79,0.00,,,0.00,Weather View 32 v70,2014-04-21 13:49:00,
2014-04-21 06:54:00,41.4,35.4,30.02,NNW,337,0.0,2.0,79,0.00,,,0.00,Weather View 32 v70,2014-04-21 13:54:00,
2014-04-21 06:59:00,41.5,35.5,30.02,NNW,337,0.0,2.0,79,0.00,,,0.00,Weather View 32 v70,2014-04-21 13:59:00,
2014-04-21 07:04:00,41.6,35.9,30.01,NNW,337,0.0,2.0,80,0.00,,,0.00,Weather View 32 v70,2014-04-21 14:04:00,
2014-04-21 07:09:00,41.7,35.7,30.01,NNW,337,0.0,2.0,79,0.00,,,0.00,Weather View 32 v70,2014-04-21 14:09:00,
2014-04-21 07:14:00,41.8,36.1,30.01,NNW,337,0.0,2.0,80,0.00,,,0.00,Weather View 32 v70,2014-04-21 14:14:00,
2014-04-21 07:19:00,41.9,35.9,30.01,NNW,337,0.0,1.0,79,0.00,,,0.00,Weather View 32 v70,2014-04-21 14:19:00,
2014-04-21 07:24:00,42.2,36.1,30.01,NNW,337,0.0,1.0,79,0.00,,,0.00,Weather View 32 v70,2014-04-21 14:24:00,
2014-04-21 07:29:00,42.4,36.0,30.01,NNW,337,0.0,0.0,78,0.00,,,0.00,Weather View 32 v70,2014-04-21 14:29:00,
2014-04-21 07:34:00,42.8,36.4,30.01,NNW,337,0.0,1.0,78,0.00,,,0.00,Weather View 32 v70,2014-04-21 14:34:00,
2014-04-21 07:39:00,43.2,36.8,30.00,NNW,337,0.0,2.0,78,0.00,,,0.00,Weather View 32 v70,2014-04-21 14:39:00,
2014-04-21 07:44:00,43.4,37.0,30.01,NNW,337,0.0,2.0,78,0.00,,,0.00,Weather View 32 v70,2014-04-21 14:44:00,
2014-04-21 07:49:00,43.7,37.3,30.00,NNW,337,0.0,2.0,78,0.00,,,0.00,Weather View 32 v70,2014-04-21 14:49:00,
2014-04-21 07:54:00,44.1,37.7,30.01,NNW,337,0.0,2.0,78,0.00,,,0.00,Weather View 32 v70,2014-04-21 14:54:00,
2014-04-21 07:59:00,44.8,38.3,30.00,NNE,22,0.0,2.0,78,0.00,,,0.00,Weather View 32 v70,2014-04-21 14:59:00,
2014-04-21 08:04:00,45.4,38.6,30.01,NNE,22,0.0,2.0,77,0.00,,,0.00,Weather View 32 v70,2014-04-21 15:04:00,
2014-04-21 08:09:00,45.8,39.0,30.02,SSW,202,0.0,2.0,77,0.00,,,0.00,Weather View 32 v70,2014-04-21 15:09:00,
2014-04-21 08:14:00,46.4,38.6,30.02,WNW,292,0.0,2.0,74,0.00,,,0.00,Weather View 32 v70,2014-04-21 15:14:00,
2014-04-21 08:19:00,46.9,38.7,30.00,NE,45,1.0,2.0,73,0.00,,,0.00,Weather View 32 v70,2014-04-21 15:19:00,
2014-04-21 08:24:00,47.3,38.7,30.01,South,180,1.0,2.0,72,0.00,,,0.00,Weather View 32 v70,2014-04-21 15:24:00,
2014-04-21 08:29:00,47.7,38.7,30.00,East,90,2.0,2.0,71,0.00,,,0.00,Weather View 32 v70,2014-04-21 15:29:00,
2014-04-21 08:34:00,47.8,38.8,30.00,ENE,67,0.0,5.0,71,0.00,,,0.00,Weather View 32 v70,2014-04-21 15:34:00,
2014-04-21 08:39:00,47.8,39.2,30.01,WSW,247,0.0,5.0,72,0.00,,,0.00,Weather View 32 v70,2014-04-21 15:39:00,
2014-04-21 08:44:00,48.1,39.5,30.02,SSW,202,2.0,5.0,72,0.00,,,0.00,Weather View 32 v70,2014-04-21 15:44:00,
2014-04-21 08:49:00,48.6,38.1,30.01,SW,225,1.0,8.0,67,0.00,,,0.00,Weather View 32 v70,2014-04-21 15:49:00,
2014-04-21 08:54:00,48.7,37.4,30.00,SW,225,2.0,8.0,65,0.00,,,0.00,Weather View 32 v70,2014-04-21 15:54:00,
2014-04-21 08:59:00,48.9,38.0,30.00,SW,225,2.0,8.0,66,0.00,,,0.00,Weather View 32 v70,2014-04-21 15:59:00,
2014-04-21 09:04:00,49.4,37.7,30.00,SW,225,0.0,8.0,64,0.00,,,0.00,Weather View 32 v70,2014-04-21 16:04:00,
2014-04-21 09:09:00,49.9,37.8,30.00,SW,225,2.0,8.0,63,0.00,,,0.00,Weather View 32 v70,2014-04-21 16:09:00,
2014-04-21 09:14:00,50.3,37.8,30.01,WSW,247,3.0,8.0,62,0.00,,,0.00,Weather View 32 v70,2014-04-21 16:14:00,
2014-04-21 09:19:00,50.3,37.3,30.00,SW,225,2.0,8.0,61,0.00,,,0.00,Weather View 32 v70,2014-04-21 16:19:00,
2014-04-21 09:24:00,50.5,37.9,30.00,SW,225,0.0,8.0,62,0.00,,,0.00,Weather View 32 v70,2014-04-21 16:24:00,